Alpine Meadows, California
Current Conditions -  °F | °C
As of 4:55 AM on Friday 19 Dec 2014 (Local Time) from KTRK Reporting Station
Overcast Overcast  
Wind Chill: 25°   Ceiling: 4600
Heat Index: 36°   Visibility: 10mi
Dew Point: 16°   Wind: 21mph
Humidity: 44%   Direction: 200°SSW
Pressure: 30.1"   Gusts: 25mph
Location:  39.16°N, 120.24°W
Report Text: KTRK 191255Z AUTO 20018G22KT 10SM SCT038 OVC046 02/M09 A3010 RMK AO2
Loading
Personal Weather Stations






























Interactive Weather Map New forecast layout! Learn more

10-Day Weather Forecast

Advertisements
Track Severe Weather on mobile